sensor_id;sensor_type;location;lat;lon;timestamp;P1;durP1;ratioP1;P2;durP2;ratioP2
41059;SDS011;26811;53.160;8.202;2024-01-06T00:02:05;26.45;;;14.23;;
41059;SDS011;26811;53.160;8.202;2024-01-06T00:07:06;28.58;;;13.05;;
41059;SDS011;26811;53.160;8.202;2024-01-06T00:12:06;27.92;;;13.63;;
41059;SDS011;26811;53.160;8.202;2024-01-06T00:17:07;24.35;;;13.20;;
41059;SDS011;26811;53.160;8.202;2024-01-06T00:22:08;26.73;;;13.25;;
41059;SDS011;26811;53.160;8.202;2024-01-06T00:27:09;24.27;;;13.13;;
41059;SDS011;26811;53.160;8.202;2024-01-06T00:32:10;24.88;;;14.00;;
41059;SDS011;26811;53.160;8.202;2024-01-06T00:37:11;24.17;;;12.73;;
41059;SDS011;26811;53.160;8.202;2024-01-06T00:42:15;27.52;;;13.35;;
41059;SDS011;26811;53.160;8.202;2024-01-06T00:47:16;26.45;;;12.02;;
41059;SDS011;26811;53.160;8.202;2024-01-06T00:52:17;25.67;;;13.15;;
41059;SDS011;26811;53.160;8.202;2024-01-06T00:57:17;22.65;;;11.70;;
41059;SDS011;26811;53.160;8.202;2024-01-06T01:02:23;31.40;;;13.60;;
41059;SDS011;26811;53.160;8.202;2024-01-06T01:07:24;22.88;;;13.27;;
41059;SDS011;26811;53.160;8.202;2024-01-06T01:12:27;24.33;;;13.03;;
41059;SDS011;26811;53.160;8.202;2024-01-06T01:17:27;26.77;;;13.27;;
41059;SDS011;26811;53.160;8.202;2024-01-06T01:22:28;25.75;;;13.18;;
41059;SDS011;26811;53.160;8.202;2024-01-06T01:27:28;26.63;;;14.10;;
41059;SDS011;26811;53.160;8.202;2024-01-06T01:32:29;20.73;;;11.98;;
41059;SDS011;26811;53.160;8.202;2024-01-06T01:37:30;26.02;;;13.70;;
41059;SDS011;26811;53.160;8.202;2024-01-06T01:42:30;23.42;;;12.52;;
41059;SDS011;26811;53.160;8.202;2024-01-06T01:47:31;25.55;;;13.48;;
41059;SDS011;26811;53.160;8.202;2024-01-06T01:52:31;23.10;;;12.55;;
41059;SDS011;26811;53.160;8.202;2024-01-06T01:57:32;22.92;;;11.95;;
41059;SDS011;26811;53.160;8.202;2024-01-06T02:02:33;22.77;;;11.80;;
41059;SDS011;26811;53.160;8.202;2024-01-06T02:07:34;19.60;;;11.00;;
41059;SDS011;26811;53.160;8.202;2024-01-06T02:12:35;21.52;;;11.35;;
41059;SDS011;26811;53.160;8.202;2024-01-06T02:17:35;20.75;;;11.23;;
41059;SDS011;26811;53.160;8.202;2024-01-06T02:22:36;19.58;;;10.98;;
41059;SDS011;26811;53.160;8.202;2024-01-06T02:27:36;18.77;;;11.15;;
41059;SDS011;26811;53.160;8.202;2024-01-06T02:32:38;16.77;;;10.43;;
41059;SDS011;26811;53.160;8.202;2024-01-06T02:37:38;18.58;;;10.98;;
41059;SDS011;26811;53.160;8.202;2024-01-06T02:42:39;16.48;;;9.60;;
41059;SDS011;26811;53.160;8.202;2024-01-06T02:47:40;17.60;;;10.30;;
41059;SDS011;26811;53.160;8.202;2024-01-06T02:52:40;16.40;;;10.00;;
41059;SDS011;26811;53.160;8.202;2024-01-06T02:57:41;18.17;;;10.38;;
41059;SDS011;26811;53.160;8.202;2024-01-06T03:02:42;18.23;;;11.07;;
41059;SDS011;26811;53.160;8.202;2024-01-06T03:07:42;16.75;;;9.93;;
41059;SDS011;26811;53.160;8.202;2024-01-06T03:12:44;17.08;;;10.15;;
41059;SDS011;26811;53.160;8.202;2024-01-06T03:17:45;18.45;;;10.82;;
41059;SDS011;26811;53.160;8.202;2024-01-06T03:22:45;18.92;;;10.75;;
41059;SDS011;26811;53.160;8.202;2024-01-06T03:27:46;20.13;;;12.02;;
41059;SDS011;26811;53.160;8.202;2024-01-06T03:32:47;18.42;;;11.80;;
41059;SDS011;26811;53.160;8.202;2024-01-06T03:37:48;19.98;;;11.90;;
41059;SDS011;26811;53.160;8.202;2024-01-06T03:42:48;20.92;;;12.20;;
41059;SDS011;26811;53.160;8.202;2024-01-06T03:47:49;20.98;;;12.30;;
41059;SDS011;26811;53.160;8.202;2024-01-06T03:52:49;23.05;;;13.05;;
41059;SDS011;26811;53.160;8.202;2024-01-06T03:57:50;21.13;;;13.18;;
41059;SDS011;26811;53.160;8.202;2024-01-06T04:02:50;22.77;;;13.27;;
41059;SDS011;26811;53.160;8.202;2024-01-06T04:07:51;23.27;;;13.85;;
41059;SDS011;26811;53.160;8.202;2024-01-06T04:12:52;21.60;;;13.65;;
41059;SDS011;26811;53.160;8.202;2024-01-06T04:17:52;22.42;;;12.90;;
41059;SDS011;26811;53.160;8.202;2024-01-06T04:22:54;25.08;;;13.63;;
41059;SDS011;26811;53.160;8.202;2024-01-06T04:27:54;23.52;;;14.27;;
41059;SDS011;26811;53.160;8.202;2024-01-06T04:32:55;24.98;;;14.32;;
41059;SDS011;26811;53.160;8.202;2024-01-06T04:37:57;24.17;;;14.77;;
41059;SDS011;26811;53.160;8.202;2024-01-06T04:42:57;25.70;;;14.77;;
41059;SDS011;26811;53.160;8.202;2024-01-06T04:47:58;27.05;;;14.73;;
41059;SDS011;26811;53.160;8.202;2024-01-06T04:52:58;26.60;;;14.93;;
41059;SDS011;26811;53.160;8.202;2024-01-06T04:57:59;24.83;;;13.98;;
41059;SDS011;26811;53.160;8.202;2024-01-06T05:02:59;25.00;;;13.60;;
41059;SDS011;26811;53.160;8.202;2024-01-06T05:08:00;22.42;;;13.02;;
41059;SDS011;26811;53.160;8.202;2024-01-06T05:13:01;25.02;;;14.25;;
41059;SDS011;26811;53.160;8.202;2024-01-06T05:18:01;24.90;;;13.35;;
41059;SDS011;26811;53.160;8.202;2024-01-06T05:23:02;25.05;;;13.98;;
41059;SDS011;26811;53.160;8.202;2024-01-06T05:28:03;25.38;;;13.20;;
41059;SDS011;26811;53.160;8.202;2024-01-06T05:33:04;26.73;;;13.75;;
41059;SDS011;26811;53.160;8.202;2024-01-06T05:38:05;26.30;;;13.65;;
41059;SDS011;26811;53.160;8.202;2024-01-06T05:43:05;25.48;;;14.18;;
41059;SDS011;26811;53.160;8.202;2024-01-06T05:48:08;27.05;;;14.20;;
41059;SDS011;26811;53.160;8.202;2024-01-06T05:58:10;29.70;;;13.90;;
41059;SDS011;26811;53.160;8.202;2024-01-06T06:03:11;26.45;;;14.20;;
41059;SDS011;26811;53.160;8.202;2024-01-06T06:08:11;27.58;;;14.77;;
41059;SDS011;26811;53.160;8.202;2024-01-06T06:13:12;27.75;;;13.15;;
41059;SDS011;26811;53.160;8.202;2024-01-06T06:18:12;29.35;;;15.18;;
41059;SDS011;26811;53.160;8.202;2024-01-06T06:23:13;28.95;;;14.30;;
41059;SDS011;26811;53.160;8.202;2024-01-06T06:28:13;29.45;;;15.38;;
41059;SDS011;26811;53.160;8.202;2024-01-06T06:33:14;29.05;;;15.13;;
41059;SDS011;26811;53.160;8.202;2024-01-06T06:38:15;30.65;;;15.30;;
41059;SDS011;26811;53.160;8.202;2024-01-06T06:43:15;29.92;;;15.52;;
41059;SDS011;26811;53.160;8.202;2024-01-06T06:48:16;29.48;;;15.45;;
41059;SDS011;26811;53.160;8.202;2024-01-06T06:53:17;31.70;;;16.42;;
41059;SDS011;26811;53.160;8.202;2024-01-06T06:58:17;31.42;;;16.20;;
41059;SDS011;26811;53.160;8.202;2024-01-06T07:03:18;33.53;;;15.50;;
41059;SDS011;26811;53.160;8.202;2024-01-06T07:08:18;33.55;;;17.13;;
41059;SDS011;26811;53.160;8.202;2024-01-06T07:13:19;32.15;;;16.17;;
41059;SDS011;26811;53.160;8.202;2024-01-06T07:18:19;31.85;;;16.65;;
41059;SDS011;26811;53.160;8.202;2024-01-06T07:28:23;30.33;;;15.60;;
41059;SDS011;26811;53.160;8.202;2024-01-06T07:33:24;34.95;;;17.52;;
41059;SDS011;26811;53.160;8.202;2024-01-06T07:38:25;36.17;;;17.10;;
41059;SDS011;26811;53.160;8.202;2024-01-06T07:43:25;35.50;;;17.00;;
41059;SDS011;26811;53.160;8.202;2024-01-06T07:48:26;36.33;;;17.65;;
41059;SDS011;26811;53.160;8.202;2024-01-06T07:53:26;34.92;;;16.88;;
41059;SDS011;26811;53.160;8.202;2024-01-06T07:58:27;35.47;;;18.17;;
41059;SDS011;26811;53.160;8.202;2024-01-06T08:03:28;35.97;;;16.92;;
41059;SDS011;26811;53.160;8.202;2024-01-06T08:08:29;37.55;;;17.98;;
41059;SDS011;26811;53.160;8.202;2024-01-06T08:13:29;44.25;;;20.08;;
41059;SDS011;26811;53.160;8.202;2024-01-06T08:18:30;49.85;;;27.10;;
41059;SDS011;26811;53.160;8.202;2024-01-06T08:23:30;38.08;;;17.85;;
41059;SDS011;26811;53.160;8.202;2024-01-06T08:28:31;37.53;;;17.95;;
41059;SDS011;26811;53.160;8.202;2024-01-06T08:33:31;34.50;;;17.27;;
41059;SDS011;26811;53.160;8.202;2024-01-06T08:38:32;35.95;;;18.63;;
41059;SDS011;26811;53.160;8.202;2024-01-06T08:43:32;37.90;;;18.65;;
41059;SDS011;26811;53.160;8.202;2024-01-06T08:48:33;41.88;;;18.77;;
41059;SDS011;26811;53.160;8.202;2024-01-06T08:53:33;42.25;;;19.23;;
41059;SDS011;26811;53.160;8.202;2024-01-06T08:58:34;37.42;;;18.50;;
41059;SDS011;26811;53.160;8.202;2024-01-06T09:03:34;41.42;;;18.63;;
41059;SDS011;26811;53.160;8.202;2024-01-06T09:08:35;40.13;;;19.88;;
41059;SDS011;26811;53.160;8.202;2024-01-06T09:13:35;41.88;;;19.52;;
41059;SDS011;26811;53.160;8.202;2024-01-06T09:18:36;39.45;;;19.05;;
41059;SDS011;26811;53.160;8.202;2024-01-06T09:23:36;45.70;;;20.25;;
41059;SDS011;26811;53.160;8.202;2024-01-06T09:28:37;46.17;;;19.85;;
41059;SDS011;26811;53.160;8.202;2024-01-06T09:33:38;40.65;;;19.83;;
41059;SDS011;26811;53.160;8.202;2024-01-06T09:38:41;38.95;;;18.88;;
41059;SDS011;26811;53.160;8.202;2024-01-06T09:48:53;43.30;;;19.85;;
41059;SDS011;26811;53.160;8.202;2024-01-06T09:58:59;39.70;;;19.35;;
41059;SDS011;26811;53.160;8.202;2024-01-06T10:04:00;43.13;;;19.23;;
41059;SDS011;26811;53.160;8.202;2024-01-06T10:09:00;41.47;;;18.70;;
41059;SDS011;26811;53.160;8.202;2024-01-06T10:14:02;44.38;;;20.23;;
41059;SDS011;26811;53.160;8.202;2024-01-06T10:19:03;42.25;;;20.23;;
41059;SDS011;26811;53.160;8.202;2024-01-06T10:24:05;41.60;;;19.33;;
41059;SDS011;26811;53.160;8.202;2024-01-06T10:29:08;44.67;;;19.75;;
41059;SDS011;26811;53.160;8.202;2024-01-06T10:34:09;44.53;;;19.83;;
41059;SDS011;26811;53.160;8.202;2024-01-06T10:39:09;38.10;;;18.70;;
41059;SDS011;26811;53.160;8.202;2024-01-06T10:44:11;47.70;;;21.40;;
41059;SDS011;26811;53.160;8.202;2024-01-06T10:49:12;44.30;;;20.77;;
41059;SDS011;26811;53.160;8.202;2024-01-06T10:54:15;42.95;;;20.77;;
41059;SDS011;26811;53.160;8.202;2024-01-06T10:59:17;41.75;;;18.95;;
41059;SDS011;26811;53.160;8.202;2024-01-06T11:04:22;41.38;;;20.13;;
41059;SDS011;26811;53.160;8.202;2024-01-06T11:09:24;46.17;;;20.95;;
41059;SDS011;26811;53.160;8.202;2024-01-06T11:14:35;44.67;;;20.75;;
41059;SDS011;26811;53.160;8.202;2024-01-06T11:24:40;47.72;;;21.83;;
41059;SDS011;26811;53.160;8.202;2024-01-06T11:29:47;44.03;;;21.95;;
41059;SDS011;26811;53.160;8.202;2024-01-06T11:34:51;49.30;;;21.83;;
41059;SDS011;26811;53.160;8.202;2024-01-06T11:39:53;48.88;;;23.20;;
41059;SDS011;26811;53.160;8.202;2024-01-06T11:44:53;52.78;;;23.05;;
41059;SDS011;26811;53.160;8.202;2024-01-06T11:50:02;54.13;;;24.63;;
41059;SDS011;26811;53.160;8.202;2024-01-06T11:55:06;45.85;;;21.10;;
41059;SDS011;26811;53.160;8.202;2024-01-06T12:00:11;50.67;;;22.60;;
41059;SDS011;26811;53.160;8.202;2024-01-06T12:05:17;50.08;;;22.20;;
41059;SDS011;26811;53.160;8.202;2024-01-06T12:10:19;47.60;;;22.27;;
41059;SDS011;26811;53.160;8.202;2024-01-06T12:20:22;52.10;;;22.55;;
41059;SDS011;26811;53.160;8.202;2024-01-06T12:25:25;52.75;;;22.65;;
41059;SDS011;26811;53.160;8.202;2024-01-06T12:30:28;52.80;;;23.27;;
41059;SDS011;26811;53.160;8.202;2024-01-06T12:35:31;56.93;;;25.13;;
41059;SDS011;26811;53.160;8.202;2024-01-06T12:40:32;52.20;;;23.88;;
41059;SDS011;26811;53.160;8.202;2024-01-06T12:45:32;53.15;;;24.65;;
41059;SDS011;26811;53.160;8.202;2024-01-06T12:50:33;55.88;;;23.95;;
41059;SDS011;26811;53.160;8.202;2024-01-06T12:55:33;51.60;;;21.98;;
41059;SDS011;26811;53.160;8.202;2024-01-06T13:00:34;55.22;;;22.90;;
41059;SDS011;26811;53.160;8.202;2024-01-06T13:05:34;58.95;;;23.50;;
41059;SDS011;26811;53.160;8.202;2024-01-06T13:10:35;51.83;;;22.77;;
41059;SDS011;26811;53.160;8.202;2024-01-06T13:15:35;53.47;;;22.92;;
41059;SDS011;26811;53.160;8.202;2024-01-06T13:20:36;52.20;;;22.58;;
41059;SDS011;26811;53.160;8.202;2024-01-06T13:25:40;57.08;;;24.42;;
41059;SDS011;26811;53.160;8.202;2024-01-06T13:30:41;48.30;;;21.85;;
41059;SDS011;26811;53.160;8.202;2024-01-06T13:35:42;54.30;;;23.67;;
41059;SDS011;26811;53.160;8.202;2024-01-06T13:40:43;50.85;;;22.17;;
41059;SDS011;26811;53.160;8.202;2024-01-06T13:45:43;52.95;;;23.95;;
41059;SDS011;26811;53.160;8.202;2024-01-06T13:50:44;45.15;;;20.83;;
41059;SDS011;26811;53.160;8.202;2024-01-06T13:55:46;53.45;;;22.25;;
41059;SDS011;26811;53.160;8.202;2024-01-06T14:00:46;44.40;;;20.58;;
41059;SDS011;26811;53.160;8.202;2024-01-06T14:05:48;44.58;;;20.83;;
41059;SDS011;26811;53.160;8.202;2024-01-06T14:10:51;46.97;;;20.25;;
41059;SDS011;26811;53.160;8.202;2024-01-06T14:15:51;47.17;;;22.05;;
41059;SDS011;26811;53.160;8.202;2024-01-06T14:20:52;49.17;;;21.98;;
41059;SDS011;26811;53.160;8.202;2024-01-06T14:25:55;46.35;;;20.48;;
41059;SDS011;26811;53.160;8.202;2024-01-06T14:30:55;46.65;;;21.95;;
41059;SDS011;26811;53.160;8.202;2024-01-06T14:35:56;46.92;;;20.52;;
41059;SDS011;26811;53.160;8.202;2024-01-06T14:40:57;42.00;;;20.13;;
41059;SDS011;26811;53.160;8.202;2024-01-06T14:45:57;47.47;;;21.42;;
41059;SDS011;26811;53.160;8.202;2024-01-06T14:50:58;46.20;;;20.80;;
41059;SDS011;26811;53.160;8.202;2024-01-06T14:55:58;45.88;;;21.42;;
41059;SDS011;26811;53.160;8.202;2024-01-06T15:01:00;46.97;;;21.70;;
41059;SDS011;26811;53.160;8.202;2024-01-06T15:06:01;43.20;;;20.23;;
41059;SDS011;26811;53.160;8.202;2024-01-06T15:11:01;49.75;;;22.98;;
41059;SDS011;26811;53.160;8.202;2024-01-06T15:16:04;47.97;;;22.73;;
41059;SDS011;26811;53.160;8.202;2024-01-06T15:21:05;48.20;;;23.10;;
41059;SDS011;26811;53.160;8.202;2024-01-06T15:26:05;46.83;;;21.40;;
41059;SDS011;26811;53.160;8.202;2024-01-06T15:31:06;43.92;;;21.30;;
41059;SDS011;26811;53.160;8.202;2024-01-06T15:36:07;49.88;;;22.23;;
41059;SDS011;26811;53.160;8.202;2024-01-06T15:41:08;48.72;;;21.48;;
41059;SDS011;26811;53.160;8.202;2024-01-06T15:51:12;41.20;;;19.85;;
41059;SDS011;26811;53.160;8.202;2024-01-06T15:56:13;46.58;;;21.63;;
41059;SDS011;26811;53.160;8.202;2024-01-06T16:01:13;42.35;;;19.45;;
41059;SDS011;26811;53.160;8.202;2024-01-06T16:06:14;41.80;;;19.58;;
41059;SDS011;26811;53.160;8.202;2024-01-06T16:11:15;45.55;;;19.92;;
41059;SDS011;26811;53.160;8.202;2024-01-06T16:16:15;48.47;;;22.95;;
41059;SDS011;26811;53.160;8.202;2024-01-06T16:21:25;51.28;;;21.30;;
41059;SDS011;26811;53.160;8.202;2024-01-06T16:26:26;38.38;;;18.88;;
41059;SDS011;26811;53.160;8.202;2024-01-06T16:31:30;43.80;;;22.83;;
41059;SDS011;26811;53.160;8.202;2024-01-06T16:36:31;38.00;;;19.52;;
41059;SDS011;26811;53.160;8.202;2024-01-06T16:41:31;37.75;;;17.27;;
41059;SDS011;26811;53.160;8.202;2024-01-06T16:46:32;43.35;;;19.08;;
41059;SDS011;26811;53.160;8.202;2024-01-06T16:51:33;38.22;;;19.17;;
41059;SDS011;26811;53.160;8.202;2024-01-06T16:56:33;38.15;;;19.45;;
41059;SDS011;26811;53.160;8.202;2024-01-06T17:01:34;37.65;;;18.48;;
41059;SDS011;26811;53.160;8.202;2024-01-06T17:06:36;33.70;;;16.30;;
41059;SDS011;26811;53.160;8.202;2024-01-06T17:11:37;30.52;;;15.75;;
41059;SDS011;26811;53.160;8.202;2024-01-06T17:16:38;36.60;;;16.83;;
41059;SDS011;26811;53.160;8.202;2024-01-06T17:21:39;42.15;;;19.98;;
41059;SDS011;26811;53.160;8.202;2024-01-06T17:26:39;31.33;;;17.05;;
41059;SDS011;26811;53.160;8.202;2024-01-06T17:31:40;33.00;;;16.60;;
41059;SDS011;26811;53.160;8.202;2024-01-06T17:36:41;28.55;;;15.10;;
41059;SDS011;26811;53.160;8.202;2024-01-06T17:41:43;42.90;;;21.65;;
41059;SDS011;26811;53.160;8.202;2024-01-06T17:46:44;30.40;;;16.52;;
41059;SDS011;26811;53.160;8.202;2024-01-06T17:51:44;33.65;;;17.25;;
41059;SDS011;26811;53.160;8.202;2024-01-06T17:56:45;29.75;;;16.38;;
41059;SDS011;26811;53.160;8.202;2024-01-06T18:01:45;34.70;;;16.60;;
41059;SDS011;26811;53.160;8.202;2024-01-06T18:06:46;30.52;;;15.55;;
41059;SDS011;26811;53.160;8.202;2024-01-06T18:11:46;31.30;;;16.10;;
41059;SDS011;26811;53.160;8.202;2024-01-06T18:16:47;29.95;;;15.75;;
41059;SDS011;26811;53.160;8.202;2024-01-06T18:21:49;29.80;;;15.93;;
41059;SDS011;26811;53.160;8.202;2024-01-06T18:26:51;29.98;;;16.02;;
41059;SDS011;26811;53.160;8.202;2024-01-06T18:31:51;27.20;;;15.13;;
41059;SDS011;26811;53.160;8.202;2024-01-06T18:36:52;33.42;;;16.65;;
41059;SDS011;26811;53.160;8.202;2024-01-06T18:41:53;31.50;;;15.90;;
41059;SDS011;26811;53.160;8.202;2024-01-06T18:46:54;63.25;;;27.95;;
41059;SDS011;26811;53.160;8.202;2024-01-06T18:51:55;35.22;;;18.15;;
41059;SDS011;26811;53.160;8.202;2024-01-06T18:56:55;27.00;;;15.07;;
41059;SDS011;26811;53.160;8.202;2024-01-06T19:01:56;28.13;;;15.35;;
41059;SDS011;26811;53.160;8.202;2024-01-06T19:06:57;26.25;;;14.88;;
41059;SDS011;26811;53.160;8.202;2024-01-06T19:11:58;25.80;;;13.65;;
41059;SDS011;26811;53.160;8.202;2024-01-06T19:17:00;25.27;;;13.65;;
41059;SDS011;26811;53.160;8.202;2024-01-06T19:22:02;24.33;;;15.30;;
41059;SDS011;26811;53.160;8.202;2024-01-06T19:27:02;28.48;;;15.82;;
41059;SDS011;26811;53.160;8.202;2024-01-06T19:32:03;27.30;;;14.25;;
41059;SDS011;26811;53.160;8.202;2024-01-06T19:37:04;32.15;;;16.50;;
41059;SDS011;26811;53.160;8.202;2024-01-06T19:42:05;32.67;;;15.60;;
41059;SDS011;26811;53.160;8.202;2024-01-06T19:47:08;27.10;;;14.32;;
41059;SDS011;26811;53.160;8.202;2024-01-06T19:52:09;35.53;;;17.95;;
41059;SDS011;26811;53.160;8.202;2024-01-06T19:57:11;31.52;;;15.93;;
41059;SDS011;26811;53.160;8.202;2024-01-06T20:02:16;31.83;;;16.80;;
41059;SDS011;26811;53.160;8.202;2024-01-06T20:07:16;31.27;;;16.13;;
41059;SDS011;26811;53.160;8.202;2024-01-06T20:12:23;37.13;;;17.27;;
41059;SDS011;26811;53.160;8.202;2024-01-06T20:17:28;28.73;;;14.88;;
41059;SDS011;26811;53.160;8.202;2024-01-06T20:22:28;30.77;;;15.55;;
41059;SDS011;26811;53.160;8.202;2024-01-06T20:27:29;31.25;;;15.38;;
41059;SDS011;26811;53.160;8.202;2024-01-06T20:32:30;29.38;;;15.48;;
41059;SDS011;26811;53.160;8.202;2024-01-06T20:37:31;35.08;;;16.10;;
41059;SDS011;26811;53.160;8.202;2024-01-06T20:42:31;28.77;;;14.43;;
41059;SDS011;26811;53.160;8.202;2024-01-06T20:47:33;33.78;;;15.80;;
41059;SDS011;26811;53.160;8.202;2024-01-06T20:52:35;28.90;;;14.15;;
41059;SDS011;26811;53.160;8.202;2024-01-06T20:57:36;32.70;;;15.07;;
41059;SDS011;26811;53.160;8.202;2024-01-06T21:02:37;30.40;;;15.20;;
41059;SDS011;26811;53.160;8.202;2024-01-06T21:07:38;27.15;;;15.25;;
41059;SDS011;26811;53.160;8.202;2024-01-06T21:17:43;29.55;;;15.13;;
41059;SDS011;26811;53.160;8.202;2024-01-06T21:22:47;25.77;;;14.02;;
41059;SDS011;26811;53.160;8.202;2024-01-06T21:27:49;26.85;;;14.05;;
41059;SDS011;26811;53.160;8.202;2024-01-06T21:32:51;30.55;;;14.18;;
41059;SDS011;26811;53.160;8.202;2024-01-06T21:38:00;25.02;;;13.02;;
41059;SDS011;26811;53.160;8.202;2024-01-06T21:43:01;24.35;;;13.55;;
41059;SDS011;26811;53.160;8.202;2024-01-06T21:48:02;39.28;;;17.33;;
41059;SDS011;26811;53.160;8.202;2024-01-06T21:53:03;27.80;;;13.90;;
41059;SDS011;26811;53.160;8.202;2024-01-06T21:58:05;28.65;;;14.90;;
41059;SDS011;26811;53.160;8.202;2024-01-06T22:03:05;32.20;;;15.93;;
41059;SDS011;26811;53.160;8.202;2024-01-06T22:08:07;29.27;;;15.13;;
41059;SDS011;26811;53.160;8.202;2024-01-06T22:13:10;31.42;;;16.77;;
41059;SDS011;26811;53.160;8.202;2024-01-06T22:18:11;25.75;;;14.45;;
41059;SDS011;26811;53.160;8.202;2024-01-06T22:28:21;26.75;;;13.98;;
41059;SDS011;26811;53.160;8.202;2024-01-06T22:33:34;31.98;;;15.30;;
41059;SDS011;26811;53.160;8.202;2024-01-06T22:38:40;27.05;;;13.85;;
41059;SDS011;26811;53.160;8.202;2024-01-06T22:43:43;25.27;;;14.77;;
41059;SDS011;26811;53.160;8.202;2024-01-06T22:49:33;28.48;;;13.85;;
41059;SDS011;26811;53.160;8.202;2024-01-06T22:55:03;26.10;;;13.75;;
41059;SDS011;26811;53.160;8.202;2024-01-06T23:00:14;23.75;;;13.07;;
41059;SDS011;26811;53.160;8.202;2024-01-06T23:06:00;25.38;;;13.85;;
41059;SDS011;26811;53.160;8.202;2024-01-06T23:11:38;26.00;;;14.10;;
41059;SDS011;26811;53.160;8.202;2024-01-06T23:16:58;24.25;;;14.07;;
41059;SDS011;26811;53.160;8.202;2024-01-06T23:27:39;20.95;;;13.18;;
41059;SDS011;26811;53.160;8.202;2024-01-06T23:38:14;22.95;;;13.30;;
41059;SDS011;26811;53.160;8.202;2024-01-06T23:43:25;23.13;;;12.73;;
41059;SDS011;26811;53.160;8.202;2024-01-06T23:48:26;24.77;;;13.27;;
41059;SDS011;26811;53.160;8.202;2024-01-06T23:53:32;22.38;;;12.13;;
41059;SDS011;26811;53.160;8.202;2024-01-06T23:58:49;23.08;;;12.50;;
